Time;durP1;ratioP1;P1;durP2;ratioP2;P2;SDS_P1;SDS_P2;PMS_P1;PMS_P2;Temp;Humidity;BMP_temperature;BMP_pressure;BME280_temperature;BME280_humidity;BME280_pressure;Samples;Min_cycle;Max_cycle;Signal;HPM_P1;HPM_P2
2021/08/20 00:00:16;;;;;;;1.73;1.53;;;21.30;99.90;;;21.64;58.73;101122.13;4998225;27;98978;-50
2021/08/20 00:02:43;;;;;;;4.27;2.93;;;21.30;99.90;;;21.59;58.75;101122.47;4994242;27;97061;-49
2021/08/20 00:05:10;;;;;;;3.33;2.73;;;21.30;99.90;;;21.60;58.76;101123.34;4989862;27;99994;-51
2021/08/20 00:07:35;;;;;;;2.07;1.47;;;21.20;99.90;;;21.59;58.87;101132.38;4986510;27;99901;-49
2021/08/20 00:10:03;;;;;;;3.27;2.90;;;21.20;99.90;;;21.57;58.85;101126.25;4991773;27;98777;-53
2021/08/20 00:12:29;;;;;;;4.80;3.10;;;21.20;99.90;;;21.57;58.89;101132.47;5008826;27;98660;-49
2021/08/20 00:14:55;;;;;;;2.10;1.90;;;21.20;99.90;;;21.57;58.84;101129.78;4989007;27;97042;-46
2021/08/20 00:17:23;;;;;;;4.00;2.80;;;21.20;99.90;;;21.57;58.95;101127.13;4987724;27;98004;-53
2021/08/20 00:19:50;;;;;;;2.33;2.13;;;21.20;99.90;;;21.58;58.87;101126.13;4991027;27;98379;-50
2021/08/20 00:22:15;;;;;;;2.60;1.93;;;21.20;99.90;;;21.56;58.82;101114.66;5004115;27;97706;-47
2021/08/20 00:24:41;;;;;;;3.17;2.73;;;21.20;99.90;;;21.57;58.71;101115.53;5008902;27;97269;-52
2021/08/20 00:27:07;;;;;;;3.90;3.10;;;21.20;99.90;;;21.56;58.49;101116.50;4987839;27;97653;-47
2021/08/20 00:29:33;;;;;;;4.47;3.00;;;21.20;99.90;;;21.55;58.81;101112.91;4990682;27;98880;-49
2021/08/20 00:31:59;;;;;;;2.63;2.43;;;21.20;99.90;;;21.54;58.65;101116.56;4987791;27;97342;-48
2021/08/20 00:34:25;;;;;;;4.73;3.53;;;21.20;99.90;;;21.53;58.70;101120.22;5008647;27;98839;-51
2021/08/20 00:36:51;;;;;;;2.73;2.53;;;21.20;99.90;;;21.51;58.92;101122.19;4987138;27;97971;-55
2021/08/20 00:39:19;;;;;;;3.50;3.07;;;21.20;99.90;;;21.51;58.88;101121.31;4947752;27;98460;-54
2021/08/20 00:41:46;;;;;;;2.60;2.07;;;21.20;99.90;;;21.51;58.84;101122.19;4987802;27;102493;-55
2021/08/20 00:44:13;;;;;;;2.07;1.93;;;21.20;99.90;;;21.51;59.03;101121.31;4968956;27;97296;-53
2021/08/20 00:46:43;;;;;;;3.33;3.03;;;21.10;99.90;;;21.50;58.95;101119.63;4982932;27;98630;-52
2021/08/20 00:49:13;;;;;;;3.40;3.10;;;21.10;99.90;;;21.49;59.23;101124.13;4950950;27;98843;-50
2021/08/20 00:51:42;;;;;;;5.13;2.30;;;21.10;99.90;;;21.49;58.98;101117.91;4970518;27;98848;-50
2021/08/20 00:54:11;;;;;;;3.67;2.87;;;21.10;99.90;;;21.46;59.04;101118.13;4944366;27;98145;-49
2021/08/20 00:56:43;;;;;;;3.90;3.40;;;21.10;99.90;;;21.46;59.03;101127.03;4967547;27;99366;-53
2021/08/20 00:59:16;;;;;;;3.67;2.80;;;21.10;99.90;;;21.45;59.27;101122.66;4951073;27;98248;-50
2021/08/20 01:01:46;;;;;;;2.47;2.23;;;21.10;99.90;;;21.44;59.23;101115.56;4985641;27;97930;-52
2021/08/20 01:04:13;;;;;;;4.77;3.10;;;21.10;99.90;;;21.46;59.00;101112.78;4974895;27;98004;-53
2021/08/20 01:06:40;;;;;;;2.60;2.40;;;21.10;99.90;;;21.46;59.09;101124.34;4977500;27;98451;-55
2021/08/20 01:09:12;;;;;;;5.20;3.03;;;21.10;99.90;;;21.47;58.97;101131.44;4951595;27;97215;-54
2021/08/20 01:11:42;;;;;;;6.07;3.70;;;21.10;99.90;;;21.48;58.78;101133.16;4995769;27;98939;-49
2021/08/20 01:14:16;;;;;;;4.07;3.37;;;21.20;99.90;;;21.50;58.94;101131.22;4978445;27;99486;-54
2021/08/20 01:16:43;;;;;;;3.63;3.33;;;21.20;99.90;;;21.52;58.77;101129.25;4989700;27;98163;-51
2021/08/20 01:19:12;;;;;;;6.13;3.20;;;21.20;99.90;;;21.53;58.86;101133.66;4964764;27;97676;-47
2021/08/20 01:21:38;;;;;;;4.10;3.70;;;21.20;99.90;;;21.51;59.13;101137.44;4978177;27;100340;-52
2021/08/20 01:24:07;;;;;;;4.70;3.07;;;21.20;99.90;;;21.52;58.61;101129.25;4941618;27;101118;-52
2021/08/20 01:26:35;;;;;;;5.10;3.77;;;21.20;99.90;;;21.53;58.24;101133.66;4982173;27;99028;-54
2021/08/20 01:29:05;;;;;;;5.20;3.87;;;21.30;99.90;;;21.53;58.75;101136.34;4990776;27;99652;-51
2021/08/20 01:31:32;;;;;;;4.70;3.83;;;21.20;99.90;;;21.55;58.68;101133.53;4963884;28;98373;-51
2021/08/20 01:33:58;;;;;;;8.23;4.30;;;21.30;99.90;;;21.56;58.67;101128.09;4986160;27;99818;-51
2021/08/20 01:36:24;;;;;;;5.43;4.00;;;21.30;99.90;;;21.60;58.58;101136.75;4986837;27;98835;-51
2021/08/20 01:38:56;;;;;;;5.77;4.00;;;21.40;99.90;;;21.61;58.47;101123.22;4987327;27;99590;-56
2021/08/20 01:41:27;;;;;;;3.20;2.67;;;21.40;99.90;;;21.63;58.22;101121.28;4989532;27;97414;-50
2021/08/20 01:43:54;;;;;;;6.47;4.17;;;21.40;99.90;;;21.61;58.41;101119.69;4987332;27;97722;-53
2021/08/20 01:46:20;;;;;;;5.90;4.27;;;21.40;99.90;;;21.59;58.43;101119.81;4989948;27;98873;-50
2021/08/20 01:48:51;;;;;;;6.60;4.00;;;21.40;99.90;;;21.61;58.41;101117.84;5007465;27;98924;-50
2021/08/20 01:51:25;;;;;;;5.97;4.50;;;21.40;99.90;;;21.61;58.42;101123.22;5006849;27;98483;-48
2021/08/20 01:54:00;;;;;;;7.17;5.23;;;21.40;99.90;;;21.62;58.27;101130.31;5009970;27;97027;-52
2021/08/20 01:56:32;;;;;;;6.20;4.30;;;21.40;99.90;;;21.61;58.07;101120.53;5030832;27;99778;-50
2021/08/20 01:59:00;;;;;;;6.80;4.50;;;21.40;99.90;;;21.61;58.27;101125.91;5008656;27;98261;-48
2021/08/20 02:01:28;;;;;;;5.50;4.00;;;21.40;99.90;;;21.60;58.13;101121.50;5025622;27;99512;-53
2021/08/20 02:03:54;;;;;;;5.93;4.97;;;21.30;99.90;;;21.60;58.29;101126.03;5007621;27;98426;-49
2021/08/20 02:06:20;;;;;;;7.63;4.70;;;21.30;99.90;;;21.58;57.87;101119.91;5010625;27;97112;-46
2021/08/20 02:08:46;;;;;;;7.77;4.93;;;21.40;99.90;;;21.59;57.52;101125.16;5019017;27;97099;-45
2021/08/20 02:11:12;;;;;;;5.93;4.97;;;21.40;99.90;;;21.59;58.41;101127.84;5023633;27;96962;-50
2021/08/20 02:13:39;;;;;;;8.07;5.10;;;21.40;99.90;;;21.60;58.38;101124.19;5009136;27;98086;-48
2021/08/20 02:16:06;;;;;;;8.03;5.57;;;21.40;99.90;;;21.60;58.34;101132.25;5009469;27;99771;-48
2021/08/20 02:18:32;;;;;;;7.03;4.57;;;21.40;99.90;;;21.63;58.24;101132.00;5012073;27;98541;-46
2021/08/20 02:20:59;;;;;;;9.43;5.67;;;21.50;99.90;;;21.64;58.12;101133.72;5006062;27;97405;-48
2021/08/20 02:23:25;;;;;;;8.77;5.80;;;21.50;99.90;;;21.65;57.76;101134.56;5009680;27;98123;-48
2021/08/20 02:25:50;;;;;;;10.10;5.23;;;21.50;99.90;;;21.67;58.15;101138.00;5010528;27;97553;-55
2021/08/20 02:28:16;;;;;;;8.93;5.70;;;21.50;99.90;;;21.66;57.81;101144.34;5014245;27;99819;-47
2021/08/20 02:30:42;;;;;;;7.07;5.27;;;21.50;99.90;;;21.63;55.89;101137.38;5014734;27;97977;-48
2021/08/20 02:33:08;;;;;;;6.37;5.00;;;21.50;99.90;;;21.65;57.93;101140.81;5007767;27;98398;-48
2021/08/20 02:35:34;;;;;;;6.97;4.70;;;21.40;99.90;;;21.64;57.84;101139.09;5026369;27;98924;-50
2021/08/20 02:38:00;;;;;;;9.20;5.10;;;21.40;99.90;;;21.64;57.33;101139.09;4988128;28;100526;-53
2021/08/20 02:40:26;;;;;;;6.10;5.13;;;21.40;99.90;;;21.64;58.15;101149.84;5018048;27;97828;-53
2021/08/20 02:42:53;;;;;;;8.83;5.60;;;21.40;99.90;;;21.63;58.02;101137.38;5010717;27;97497;-48
2021/08/20 02:45:19;;;;;;;8.23;5.20;;;21.40;99.90;;;21.64;57.99;101140.91;5015806;27;99299;-51
2021/08/20 02:47:47;;;;;;;11.60;5.77;;;21.40;99.90;;;21.62;57.84;101146.41;5027058;27;99676;-47
2021/08/20 02:50:13;;;;;;;7.13;5.30;;;21.40;99.90;;;21.63;58.09;101147.25;5024986;27;96877;-48
2021/08/20 02:52:39;;;;;;;5.93;5.10;;;21.40;99.90;;;21.61;57.83;101144.69;5017150;27;97598;-47
2021/08/20 02:55:06;;;;;;;7.43;5.87;;;21.40;99.90;;;21.56;57.33;101146.88;5005842;27;114811;-51
2021/08/20 02:57:31;;;;;;;9.83;6.07;;;21.30;99.90;;;21.57;57.59;101148.59;5013650;27;99003;-49
2021/08/20 02:59:57;;;;;;;8.90;5.87;;;21.30;99.90;;;21.57;57.69;101148.59;5010332;27;98030;-51
2021/08/20 03:02:24;;;;;;;5.23;4.33;;;21.30;99.90;;;21.57;57.92;101148.59;5013845;27;96863;-48
2021/08/20 03:04:50;;;;;;;8.30;5.23;;;21.30;99.90;;;21.57;57.96;101147.72;5011664;27;98979;-56
2021/08/20 03:07:17;;;;;;;8.20;5.33;;;21.30;99.90;;;21.55;57.71;101147.81;5027486;27;104041;-47
2021/08/20 03:09:44;;;;;;;6.97;5.07;;;21.30;99.90;;;21.55;57.89;101146.97;5030339;27;96857;-51
2021/08/20 03:12:09;;;;;;;8.03;4.50;;;21.30;99.90;;;21.52;58.18;101150.72;5010883;27;97904;-47
2021/08/20 03:14:35;;;;;;;7.67;5.50;;;21.20;99.90;;;21.49;57.53;101142.91;5007836;27;98527;-52
2021/08/20 03:17:01;;;;;;;7.93;5.17;;;21.20;99.90;;;21.50;58.43;101147.31;5023389;27;111547;-47
2021/08/20 03:19:28;;;;;;;8.40;5.83;;;21.20;99.90;;;21.50;58.34;101146.44;5015476;27;97509;-50
2021/08/20 03:21:54;;;;;;;8.00;6.10;;;21.20;99.90;;;21.50;58.34;101152.69;5006719;27;97302;-48
2021/08/20 03:24:20;;;;;;;5.43;4.80;;;21.20;99.90;;;21.51;58.45;101151.69;5012158;27;97109;-49
2021/08/20 03:26:46;;;;;;;6.53;3.97;;;21.20;99.90;;;21.52;58.41;101150.72;5005864;27;98141;-52
2021/08/20 03:29:11;;;;;;;7.40;5.67;;;21.30;99.90;;;21.52;58.10;101156.09;5005526;27;98579;-48
2021/08/20 03:31:37;;;;;;;7.00;5.47;;;21.30;99.90;;;21.53;58.21;101151.59;5009492;27;97143;-48
2021/08/20 03:34:03;;;;;;;5.03;4.33;;;21.30;99.90;;;21.54;58.19;101147.94;5025128;27;100117;-48
2021/08/20 03:36:29;;;;;;;7.60;5.33;;;21.30;99.90;;;21.54;58.16;101150.63;5013067;27;99115;-45
2021/08/20 03:38:55;;;;;;;8.57;5.20;;;21.30;99.90;;;21.56;58.20;101143.34;5010592;27;97082;-45
2021/08/20 03:41:22;;;;;;;6.47;5.20;;;21.30;99.90;;;21.55;57.78;101150.50;5010679;27;97730;-45
2021/08/20 03:43:49;;;;;;;6.90;4.37;;;21.30;99.90;;;21.56;58.24;101152.25;5015127;27;98872;-47
2021/08/20 03:46:15;;;;;;;6.87;5.97;;;21.30;99.90;;;21.56;58.22;101162.13;5016273;27;98394;-47
2021/08/20 03:48:44;;;;;;;6.03;4.40;;;21.30;99.90;;;21.54;58.43;101154.16;5014657;27;98470;-47
2021/08/20 03:51:11;;;;;;;8.13;4.77;;;21.20;99.90;;;21.54;58.50;101159.53;5024468;27;97232;-48
2021/08/20 03:53:37;;;;;;;6.67;3.80;;;21.20;99.90;;;21.52;58.39;101172.19;5012784;27;97598;-48
2021/08/20 03:56:03;;;;;;;8.10;4.67;;;21.20;99.90;;;21.50;58.41;101173.28;5021392;27;98235;-47
2021/08/20 03:58:29;;;;;;;7.73;5.40;;;21.10;99.90;;;21.48;58.60;101173.41;5030183;27;97528;-47
2021/08/20 04:00:55;;;;;;;6.77;5.20;;;21.10;99.90;;;21.47;58.75;101179.75;5006201;27;96985;-47
2021/08/20 04:03:23;;;;;;;6.47;5.87;;;21.10;99.90;;;21.47;58.70;101177.06;4994808;27;97068;-50
2021/08/20 04:05:49;;;;;;;8.73;5.43;;;21.10;99.90;;;21.47;58.58;101174.38;5016179;27;98325;-51
2021/08/20 04:08:17;;;;;;;4.73;3.17;;;21.10;99.90;;;21.49;58.82;101179.63;5007172;27;97972;-48
2021/08/20 04:10:44;;;;;;;5.87;3.77;;;21.10;99.90;;;21.48;58.56;101181.47;4996663;27;97190;-50
2021/08/20 04:13:10;;;;;;;5.37;4.60;;;21.10;99.90;;;21.46;58.72;101183.41;5006232;27;97725;-47
2021/08/20 04:15:37;;;;;;;7.60;4.70;;;21.10;99.90;;;21.44;58.20;101185.34;5008391;27;99295;-49
2021/08/20 04:18:04;;;;;;;3.27;2.97;;;21.00;99.90;;;21.42;58.90;101184.59;5003011;27;97157;-48
2021/08/20 04:20:30;;;;;;;5.37;3.17;;;21.00;99.90;;;21.41;58.90;101185.56;5005093;27;99136;-47
2021/08/20 04:22:58;;;;;;;6.20;5.43;;;21.00;99.90;;;21.39;58.84;101192.84;4999540;27;99116;-51
2021/08/20 04:25:25;;;;;;;7.93;5.67;;;21.00;99.90;;;21.36;58.91;101193.94;5023703;27;97199;-53
2021/08/20 04:27:51;;;;;;;4.87;4.37;;;21.00;99.90;;;21.35;58.99;101196.72;5014257;27;97028;-55
2021/08/20 04:30:22;;;;;;;7.10;4.93;;;20.90;99.90;;;21.34;59.05;101195.03;5008683;27;97094;-47
2021/08/20 04:32:49;;;;;;;5.87;5.00;;;20.90;99.90;;;21.30;59.31;101189.03;5001426;27;98991;-50
2021/08/20 04:35:15;;;;;;;4.97;3.00;;;20.90;99.90;;;21.29;59.26;101191.81;5003718;27;104561;-49
2021/08/20 04:37:41;;;;;;;4.97;2.97;;;20.90;99.90;;;21.27;59.39;101193.75;5015913;27;96905;-50
2021/08/20 04:40:08;;;;;;;8.67;5.17;;;20.90;99.90;;;21.28;59.19;101195.47;5014506;27;96864;-44
2021/08/20 04:42:38;;;;;;;5.43;3.00;;;20.90;99.90;;;21.28;59.21;101190.97;5012334;27;98641;-47
2021/08/20 04:45:06;;;;;;;5.97;4.27;;;20.90;99.90;;;21.28;59.11;101190.97;5026171;27;97898;-46
2021/08/20 04:47:32;;;;;;;4.03;3.63;;;20.90;99.90;;;21.28;59.34;101195.47;5008915;27;98397;-51
2021/08/20 04:49:58;;;;;;;3.47;2.60;;;20.90;99.90;;;21.27;59.14;101185.72;5012948;27;108904;-50
2021/08/20 04:52:24;;;;;;;7.90;6.10;;;20.90;99.90;;;21.26;59.08;101192.88;5016801;27;99476;-45
2021/08/20 04:54:50;;;;;;;8.13;5.63;;;20.90;99.90;;;21.26;59.19;101192.03;5019986;27;97183;-51
2021/08/20 04:57:16;;;;;;;8.03;6.60;;;20.80;99.90;;;21.25;58.91;101196.53;5009205;27;97820;-49
2021/08/20 04:59:41;;;;;;;4.80;3.43;;;20.90;99.90;;;21.26;59.43;101189.34;5014054;27;97283;-47
2021/08/20 05:02:08;;;;;;;10.13;6.73;;;20.80;99.90;;;21.24;58.82;101193.94;5012580;27;99766;-54
2021/08/20 05:04:35;;;;;;;7.30;5.03;;;20.80;99.90;;;21.26;59.10;101192.03;5018183;27;98021;-50
2021/08/20 05:07:03;;;;;;;4.43;3.33;;;20.90;99.90;;;21.25;59.40;101179.56;5031633;27;97503;-45
2021/08/20 05:09:29;;;;;;;4.60;3.20;;;20.90;99.90;;;21.25;59.43;101201.03;5001762;27;97593;-48
2021/08/20 05:11:55;;;;;;;11.03;5.87;;;20.90;99.90;;;21.24;59.09;101191.25;5008894;27;99565;-51
2021/08/20 05:14:20;;;;;;;8.30;6.93;;;20.90;99.90;;;21.18;59.08;101192.56;5033131;27;107478;-51
2021/08/20 05:16:48;;;;;;;3.40;2.93;;;20.80;99.90;;;21.18;59.32;101189.88;5019393;27;98312;-53
2021/08/20 05:19:15;;;;;;;8.73;6.80;;;20.80;99.90;;;21.14;58.93;101198.25;4996433;27;97326;-46
2021/08/20 05:21:41;;;;;;;8.33;7.40;;;20.70;99.90;;;21.14;59.57;101199.13;5014310;27;97651;-46
2021/08/20 05:24:07;;;;;;;3.20;2.43;;;20.70;99.90;;;21.12;59.64;101205.53;5026208;27;96976;-48
2021/08/20 05:26:32;;;;;;;7.23;5.50;;;20.70;99.90;;;21.09;59.39;101204.78;5020642;27;97973;-52
2021/08/20 05:28:58;;;;;;;9.27;7.47;;;20.70;99.90;;;21.10;59.67;101198.44;5014916;27;98696;-46
2021/08/20 05:31:24;;;;;;;10.40;7.73;;;20.70;99.90;;;21.16;59.69;101201.69;5028981;27;99925;-50
2021/08/20 05:33:50;;;;;;;8.00;6.07;;;20.80;99.90;;;21.17;59.68;101198.88;5012775;27;99069;-53
2021/08/20 05:36:16;;;;;;;8.97;6.33;;;20.80;99.90;;;21.21;59.47;101200.38;5015695;27;96667;-50
2021/08/20 05:38:42;;;;;;;10.93;8.10;;;20.90;99.90;;;21.23;59.62;101202.94;5014422;27;97194;-49
2021/08/20 05:41:08;;;;;;;3.60;2.50;;;20.90;99.90;;;21.26;59.56;101208.13;5008337;27;98599;-49
2021/08/20 05:43:34;;;;;;;5.37;4.27;;;20.90;99.90;;;21.30;59.41;101209.63;5026968;27;97280;-49
2021/08/20 05:46:00;;;;;;;12.07;9.10;;;21.00;99.90;;;21.25;58.04;101209.09;5025978;27;97308;-49
2021/08/20 05:48:26;;;;;;;13.20;9.33;;;20.90;99.90;;;21.29;59.38;101207.91;5009012;27;98761;-45
2021/08/20 05:50:52;;;;;;;8.70;6.77;;;20.90;99.90;;;21.26;59.37;101211.66;5024622;27;97585;-51
2021/08/20 05:53:18;;;;;;;12.37;8.77;;;20.90;99.90;;;21.27;58.71;101212.53;5021770;27;96853;-47
2021/08/20 05:55:44;;;;;;;5.73;4.03;;;20.90;99.90;;;21.28;59.34;101212.44;5033762;27;109080;-51
2021/08/20 05:58:09;;;;;;;12.60;9.47;;;20.90;99.90;;;21.32;59.16;101213.91;5016179;27;98024;-47
2021/08/20 06:00:35;;;;;;;4.63;3.07;;;21.00;99.90;;;21.35;59.20;101212.84;5012085;27;97566;-52
2021/08/20 06:03:01;;;;;;;9.57;7.13;;;21.00;99.90;;;21.35;59.19;101221.75;5013667;27;97504;-48
2021/08/20 06:05:27;;;;;;;12.90;9.17;;;21.00;99.90;;;21.37;59.13;101227.00;5014446;27;97263;-47
2021/08/20 06:07:53;;;;;;;14.63;9.90;;;21.00;99.90;;;21.38;58.92;101220.66;5007786;27;98159;-50
2021/08/20 06:10:19;;;;;;;5.67;4.47;;;21.10;99.90;;;21.39;58.26;101230.41;5029923;27;112679;-46
2021/08/20 06:12:45;;;;;;;10.73;7.50;;;21.10;99.90;;;21.35;59.00;101228.94;5003463;27;100518;-47
2021/08/20 06:15:13;;;;;;;8.63;5.90;;;21.00;99.90;;;21.33;59.10;101220.13;4997535;27;97224;-47
2021/08/20 06:17:41;;;;;;;13.57;10.07;;;21.00;99.90;;;21.32;59.17;101224.66;5033807;27;96949;-48
2021/08/20 06:20:07;;;;;;;11.17;9.30;;;21.00;99.90;;;21.33;58.45;101220.13;5004576;27;96886;-46
2021/08/20 06:22:33;;;;;;;14.93;9.20;;;21.00;99.90;;;21.23;59.04;101229.78;5028224;27;100249;-47
2021/08/20 06:24:59;;;;;;;11.23;8.83;;;20.90;99.90;;;21.16;58.92;101229.38;5010754;27;97790;-47
2021/08/20 06:27:25;;;;;;;13.37;9.80;;;20.80;99.90;;;21.09;58.72;101236.09;5030911;27;97462;-49
2021/08/20 06:29:50;;;;;;;13.93;10.23;;;20.70;99.90;;;21.09;58.75;101228.06;5007386;27;109090;-53
2021/08/20 06:32:16;;;;;;;11.97;9.57;;;20.70;99.90;;;21.10;58.93;101233.31;5012022;27;103336;-48
2021/08/20 06:34:42;;;;;;;12.33;8.70;;;20.80;99.90;;;21.12;59.61;101235.91;5028080;27;97168;-52
2021/08/20 06:37:08;;;;;;;7.70;5.57;;;20.80;99.90;;;21.10;59.75;101238.69;4999796;27;97329;-49
2021/08/20 06:39:34;;;;;;;13.23;10.10;;;20.70;99.90;;;21.18;59.74;101237.31;5003595;27;99489;-52
2021/08/20 06:42:00;;;;;;;9.83;7.93;;;20.80;99.90;;;21.19;59.27;101239.88;5014472;27;99141;-51
2021/08/20 06:44:27;;;;;;;13.83;10.10;;;20.90;99.90;;;21.22;59.19;101242.31;5024915;27;97875;-50
2021/08/20 06:46:53;;;;;;;11.70;10.17;;;20.90;99.90;;;21.18;59.55;101239.97;5007001;27;97975;-52
2021/08/20 06:49:19;;;;;;;11.27;9.77;;;20.90;99.90;;;21.24;59.57;101242.22;5007054;27;100973;-45
2021/08/20 06:51:44;;;;;;;8.77;6.57;;;20.90;99.90;;;21.27;59.47;101236.69;5008695;27;98429;-47
2021/08/20 06:54:10;;;;;;;11.03;9.90;;;21.00;99.90;;;21.25;59.30;101244.81;5020938;27;97122;-51
2021/08/20 06:56:36;;;;;;;10.80;8.93;;;21.00;99.90;;;21.21;59.41;101243.28;5015244;27;97929;-49
2021/08/20 06:59:02;;;;;;;16.50;10.13;;;21.00;99.90;;;21.15;59.75;101243.75;5005237;27;116063;-47
2021/08/20 07:01:28;;;;;;;12.83;9.23;;;20.80;99.90;;;21.21;59.73;101247.81;5013004;27;99196;-50
2021/08/20 07:03:55;;;;;;;13.17;10.63;;;20.90;99.90;;;21.27;59.60;101242.06;5010882;27;97313;-48
2021/08/20 07:06:26;;;;;;;14.00;9.50;;;21.00;99.90;;;21.32;59.29;101245.25;5012146;27;97977;-50
2021/08/20 07:08:55;;;;;;;11.93;10.73;;;21.00;99.90;;;21.23;59.69;101245.88;5004812;27;100503;-45
2021/08/20 07:11:24;;;;;;;14.13;10.43;;;21.00;99.90;;;21.17;59.86;101246.31;5006681;27;104428;-50
2021/08/20 07:13:51;;;;;;;13.13;11.13;;;20.90;99.90;;;21.22;59.83;101249.53;5021859;27;97463;-48
2021/08/20 07:16:17;;;;;;;14.50;11.63;;;20.90;99.90;;;21.26;59.59;101256.41;5004480;27;96823;-48
2021/08/20 07:18:43;;;;;;;13.07;9.47;;;20.90;99.90;;;21.30;59.65;101260.63;5014486;27;96946;-47
2021/08/20 07:21:09;;;;;;;13.10;10.80;;;21.00;99.90;;;21.35;59.46;101256.63;5006580;27;98358;-45
2021/08/20 07:23:35;;;;;;;12.87;10.73;;;21.10;99.90;;;21.39;59.32;101249.19;5002454;28;96939;-48
2021/08/20 07:26:05;;;;;;;15.53;13.13;;;21.10;99.90;;;21.45;58.95;101251.47;5005495;27;115078;-50
2021/08/20 07:28:32;;;;;;;13.10;11.30;;;21.20;99.90;;;21.49;58.90;101252.09;5012515;27;99630;-48
2021/08/20 07:30:58;;;;;;;12.87;10.40;;;21.30;99.90;;;21.53;58.83;101249.06;5008120;27;97295;-48
2021/08/20 07:33:24;;;;;;;14.53;11.00;;;21.30;99.90;;;21.54;58.71;101255.28;5011279;27;96773;-45
2021/08/20 07:35:50;;;;;;;12.83;11.07;;;21.30;99.90;;;21.56;58.74;101256.94;5009993;27;97021;-49
2021/08/20 07:38:16;;;;;;;15.03;11.17;;;21.30;99.90;;;21.54;59.16;101256.16;5000182;27;102182;-49
2021/08/20 07:40:42;;;;;;;10.43;8.27;;;21.30;99.90;;;21.55;58.93;101257.88;5010917;27;102468;-50
2021/08/20 07:43:08;;;;;;;11.13;10.03;;;21.30;99.90;;;21.49;59.86;101257.47;5007029;27;98236;-47
2021/08/20 07:45:34;;;;;;;12.80;11.03;;;21.20;99.90;;;21.49;59.28;101258.31;5010808;27;97426;-47
2021/08/20 07:48:00;;;;;;;15.43;10.80;;;21.20;99.90;;;21.46;59.28;101255.88;5007443;27;98471;-52
2021/08/20 07:50:26;;;;;;;13.63;10.37;;;21.20;99.90;;;21.41;60.10;101260.72;5025891;27;98220;-47
2021/08/20 07:52:52;;;;;;;11.97;10.70;;;21.20;99.90;;;21.45;59.23;101267.56;5006154;27;96926;-53
2021/08/20 07:55:18;;;;;;;12.37;10.40;;;21.20;99.90;;;21.46;59.20;101263.91;5027437;27;96960;-49
2021/08/20 07:57:48;;;;;;;12.33;9.07;;;21.20;99.90;;;21.51;58.99;101261.75;5007399;27;98232;-50
2021/08/20 08:00:17;;;;;;;12.93;10.60;;;21.30;99.90;;;21.50;59.29;101273.44;4990952;27;98982;-48
2021/08/20 08:02:43;;;;;;;11.67;9.33;;;21.30;99.90;;;21.51;59.91;101272.47;4995053;28;97593;-54
2021/08/20 08:05:09;;;;;;;9.03;7.83;;;21.30;99.90;;;21.51;59.24;101263.56;4987692;27;97675;-50
2021/08/20 08:07:35;;;;;;;8.67;7.77;;;21.30;99.90;;;21.52;59.06;101271.50;4989286;27;99250;-47
2021/08/20 08:10:01;;;;;;;13.87;10.87;;;21.30;99.90;;;21.55;58.89;101268.59;4987738;27;103319;-48
2021/08/20 08:12:27;;;;;;;10.37;9.27;;;21.30;99.90;;;21.56;59.00;101264.97;4992509;27;98170;-49
2021/08/20 08:14:53;;;;;;;11.53;10.10;;;21.40;99.90;;;21.59;58.77;101270.13;5003460;27;97569;-52
2021/08/20 08:17:19;;;;;;;11.43;9.43;;;21.40;99.90;;;21.64;58.55;101272.47;4992490;27;99502;-51
2021/08/20 08:19:44;;;;;;;13.97;10.30;;;21.50;99.90;;;21.67;58.55;101272.22;4991220;27;113544;-54
2021/08/20 08:22:10;;;;;;;16.33;10.60;;;21.50;99.90;;;21.67;58.54;101272.22;4984620;27;100307;-50
2021/08/20 08:24:36;;;;;;;11.33;10.10;;;21.50;99.90;;;21.66;59.13;101276.75;5009430;27;98683;-45
2021/08/20 08:27:02;;;;;;;12.40;10.17;;;21.50;99.90;;;21.69;58.40;101275.66;4984723;27;103845;-50
2021/08/20 08:29:28;;;;;;;13.00;10.53;;;21.50;99.90;;;21.71;58.95;101273.75;5006997;27;97676;-48
2021/08/20 08:31:54;;;;;;;10.73;9.30;;;21.50;99.90;;;21.74;58.39;101278.03;5004165;27;98765;-53
2021/08/20 08:34:19;;;;;;;11.37;9.77;;;21.60;99.90;;;21.77;58.76;101283.16;4991940;27;98019;-46
2021/08/20 08:36:46;;;;;;;12.13;10.23;;;21.60;99.90;;;21.81;58.05;101284.66;5010668;27;97630;-47
2021/08/20 08:39:12;;;;;;;12.67;10.27;;;21.60;99.90;;;21.79;58.67;101291.97;4987362;27;98232;-51
2021/08/20 08:41:38;;;;;;;5.77;3.47;;;21.60;99.90;;;21.79;58.36;101286.59;5007828;27;97981;-53
2021/08/20 08:44:05;;;;;;;12.60;10.70;;;21.60;99.90;;;21.80;58.40;101288.31;4988830;27;99023;-50
2021/08/20 08:46:37;;;;;;;4.17;3.23;;;21.60;99.90;;;21.82;58.26;101287.22;4990084;27;100096;-52
2021/08/20 08:49:06;;;;;;;12.00;8.70;;;21.60;99.90;;;21.80;58.60;101282.94;4986426;27;98517;-51
2021/08/20 08:51:33;;;;;;;12.40;11.10;;;21.60;99.90;;;21.71;59.00;101283.63;5012691;27;97404;-53
2021/08/20 08:53:59;;;;;;;13.33;11.27;;;21.50;99.90;;;21.63;59.00;101293.09;4993113;27;98362;-49
2021/08/20 08:56:25;;;;;;;11.20;8.90;;;21.40;99.90;;;21.67;58.77;101288.34;4998293;27;100033;-53
2021/08/20 08:58:52;;;;;;;8.60;7.67;;;21.40;99.90;;;21.69;58.70;101287.25;4991092;27;100234;-55
2021/08/20 09:01:37;;;;;;;11.87;10.13;;;21.40;99.90;;;21.76;58.61;101292.19;4996324;27;97302;-52
2021/08/20 09:04:16;;;;;;;13.00;11.60;;;21.50;99.90;;;21.78;58.36;101292.94;5009948;27;97447;-48
2021/08/20 09:06:45;;;;;;;10.33;9.23;;;21.60;99.90;;;21.71;59.78;101279.13;5014127;27;97816;-48
2021/08/20 09:09:15;;;;;;;12.43;8.97;;;21.50;99.90;;;21.74;59.18;101283.41;5006957;27;98022;-52
2021/08/20 09:11:43;;;;;;;9.93;8.77;;;21.50;99.90;;;21.76;58.67;101292.19;5013732;27;102114;-46
2021/08/20 09:14:10;;;;;;;12.17;10.13;;;21.60;99.90;;;21.73;59.90;101292.44;5007382;27;100626;-49
2021/08/20 09:16:40;;;;;;;12.37;10.73;;;21.60;99.90;;;21.74;58.60;101289.63;4992942;27;100804;-50
2021/08/20 09:19:14;;;;;;;11.90;10.70;;;21.50;99.90;;;21.74;58.66;101294.16;5006988;27;101934;-49
2021/08/20 09:21:54;;;;;;;9.30;8.27;;;21.50;99.90;;;21.77;59.13;101293.91;4992440;27;98312;-47
2021/08/20 09:24:40;;;;;;;12.63;11.03;;;21.50;99.90;;;21.78;59.19;101295.63;4990994;27;98656;-50
2021/08/20 09:27:18;;;;;;;12.40;10.83;;;21.60;99.90;;;21.77;58.84;101293.91;5004484;27;98258;-47
2021/08/20 09:30:11;;;;;;;8.17;6.93;;;21.50;99.90;;;21.82;58.39;101292.59;5006759;27;98415;-49
2021/08/20 09:32:53;;;;;;;11.77;10.67;;;21.60;99.90;;;21.81;59.44;101298.94;4987442;27;97654;-46
2021/08/20 09:35:19;;;;;;;13.13;9.60;;;21.60;99.90;;;21.70;60.52;101298.88;4993600;27;97408;-49
2021/08/20 09:37:46;;;;;;;11.13;9.87;;;21.60;99.90;;;21.69;59.38;101298.00;4997204;27;101834;-51
2021/08/20 09:40:15;;;;;;;11.27;10.07;;;21.50;99.90;;;21.73;58.67;101298.66;4976772;27;98470;-51
2021/08/20 09:42:41;;;;;;;10.30;9.20;;;21.50;99.90;;;21.76;59.92;101302.94;4995418;27;98242;-54
2021/08/20 09:45:21;;;;;;;10.60;8.40;;;21.60;99.90;;;21.76;58.92;101305.63;5006944;27;99538;-48
2021/08/20 09:47:55;;;;;;;13.03;9.87;;;21.60;99.90;;;21.76;59.14;101309.16;5011897;27;99761;-49
2021/08/20 09:50:40;;;;;;;11.23;9.70;;;21.60;99.90;;;21.78;58.96;101317.09;4992028;27;102690;-50
2021/08/20 09:53:14;;;;;;;11.93;9.60;;;21.60;99.90;;;21.77;60.52;101315.41;5010979;27;99219;-48
2021/08/20 09:55:43;;;;;;;10.20;8.37;;;21.60;99.90;;;21.73;61.74;101303.16;4999856;27;97778;-48
2021/08/20 09:58:13;;;;;;;13.20;9.57;;;21.60;99.90;;;21.68;60.13;101309.69;4990254;27;101519;-50
2021/08/20 10:00:41;;;;;;;6.03;5.43;;;21.50;99.90;;;21.71;59.33;101313.16;5014627;27;100003;-50
2021/08/20 10:03:12;;;;;;;6.13;4.83;;;21.50;99.90;;;21.71;59.42;101316.72;4994558;27;100096;-52
2021/08/20 10:05:38;;;;;;;5.70;4.03;;;21.50;99.90;;;21.69;59.17;101308.72;4981621;27;99587;-49
2021/08/20 10:08:06;;;;;;;3.63;3.27;;;21.50;99.90;;;21.67;59.75;101310.69;5013591;27;99400;-46